sensor_id;sensor_type;location;lat;lon;timestamp;P1;durP1;ratioP1;P2;durP2;ratioP2
20203;SDS011;10261;49.010;12.034;2022-09-20T00:00:38;1.60;;;0.68;;
20203;SDS011;10261;49.010;12.034;2022-09-20T00:01:40;1.45;;;0.70;;
20203;SDS011;10261;49.010;12.034;2022-09-20T00:02:43;2.33;;;0.95;;
20203;SDS011;10261;49.010;12.034;2022-09-20T00:03:46;4.30;;;0.98;;
20203;SDS011;10261;49.010;12.034;2022-09-20T00:04:50;1.10;;;0.80;;
20203;SDS011;10261;49.010;12.034;2022-09-20T00:05:52;2.35;;;0.63;;
20203;SDS011;10261;49.010;12.034;2022-09-20T00:06:55;3.20;;;0.80;;
20203;SDS011;10261;49.010;12.034;2022-09-20T00:07:58;2.63;;;0.90;;
20203;SDS011;10261;49.010;12.034;2022-09-20T00:09:00;1.35;;;0.90;;
20203;SDS011;10261;49.010;12.034;2022-09-20T00:10:05;1.00;;;0.60;;
20203;SDS011;10261;49.010;12.034;2022-09-20T00:11:08;1.42;;;0.70;;
20203;SDS011;10261;49.010;12.034;2022-09-20T00:12:14;1.55;;;0.80;;
20203;SDS011;10261;49.010;12.034;2022-09-20T00:13:17;1.30;;;0.90;;
20203;SDS011;10261;49.010;12.034;2022-09-20T00:14:19;2.13;;;0.80;;
20203;SDS011;10261;49.010;12.034;2022-09-20T00:15:22;3.40;;;1.23;;
20203;SDS011;10261;49.010;12.034;2022-09-20T00:16:25;1.60;;;0.60;;
20203;SDS011;10261;49.010;12.034;2022-09-20T00:17:29;2.90;;;0.98;;
20203;SDS011;10261;49.010;12.034;2022-09-20T00:18:31;2.40;;;0.68;;
20203;SDS011;10261;49.010;12.034;2022-09-20T00:19:34;1.98;;;0.68;;
20203;SDS011;10261;49.010;12.034;2022-09-20T00:20:36;1.10;;;0.70;;
20203;SDS011;10261;49.010;12.034;2022-09-20T00:21:45;2.00;;;0.73;;
20203;SDS011;10261;49.010;12.034;2022-09-20T00:22:48;2.17;;;1.08;;
20203;SDS011;10261;49.010;12.034;2022-09-20T00:23:50;1.55;;;0.77;;
20203;SDS011;10261;49.010;12.034;2022-09-20T00:24:53;2.00;;;0.82;;
20203;SDS011;10261;49.010;12.034;2022-09-20T00:25:59;4.75;;;0.70;;
20203;SDS011;10261;49.010;12.034;2022-09-20T00:27:02;4.95;;;0.90;;
20203;SDS011;10261;49.010;12.034;2022-09-20T00:28:05;2.85;;;0.60;;
20203;SDS011;10261;49.010;12.034;2022-09-20T00:29:07;5.70;;;0.98;;
20203;SDS011;10261;49.010;12.034;2022-09-20T00:30:10;1.42;;;0.90;;
20203;SDS011;10261;49.010;12.034;2022-09-20T00:31:13;1.23;;;0.70;;
20203;SDS011;10261;49.010;12.034;2022-09-20T00:32:16;3.40;;;0.80;;
20203;SDS011;10261;49.010;12.034;2022-09-20T00:33:18;2.28;;;0.70;;
20203;SDS011;10261;49.010;12.034;2022-09-20T00:34:22;1.67;;;0.80;;
20203;SDS011;10261;49.010;12.034;2022-09-20T00:35:43;1.70;;;0.70;;
20203;SDS011;10261;49.010;12.034;2022-09-20T00:36:45;1.75;;;1.00;;
20203;SDS011;10261;49.010;12.034;2022-09-20T00:37:47;1.67;;;0.65;;
20203;SDS011;10261;49.010;12.034;2022-09-20T00:38:53;5.05;;;0.80;;
20203;SDS011;10261;49.010;12.034;2022-09-20T00:39:56;3.28;;;0.70;;
20203;SDS011;10261;49.010;12.034;2022-09-20T00:41:00;3.55;;;0.95;;
20203;SDS011;10261;49.010;12.034;2022-09-20T00:42:02;1.95;;;0.90;;
20203;SDS011;10261;49.010;12.034;2022-09-20T00:43:06;3.42;;;1.10;;
20203;SDS011;10261;49.010;12.034;2022-09-20T00:45:43;2.55;;;0.80;;
20203;SDS011;10261;49.010;12.034;2022-09-20T00:46:49;1.40;;;0.77;;
20203;SDS011;10261;49.010;12.034;2022-09-20T00:47:52;1.70;;;0.70;;
20203;SDS011;10261;49.010;12.034;2022-09-20T00:49:00;3.70;;;0.70;;
20203;SDS011;10261;49.010;12.034;2022-09-20T00:50:23;2.55;;;0.90;;
20203;SDS011;10261;49.010;12.034;2022-09-20T00:51:30;1.42;;;0.80;;
20203;SDS011;10261;49.010;12.034;2022-09-20T00:52:35;0.80;;;0.60;;
20203;SDS011;10261;49.010;12.034;2022-09-20T00:53:38;3.53;;;1.15;;
20203;SDS011;10261;49.010;12.034;2022-09-20T00:54:43;3.80;;;0.90;;
20203;SDS011;10261;49.010;12.034;2022-09-20T00:55:48;1.80;;;0.60;;
20203;SDS011;10261;49.010;12.034;2022-09-20T00:56:53;2.60;;;1.40;;
20203;SDS011;10261;49.010;12.034;2022-09-20T00:57:56;3.13;;;0.70;;
20203;SDS011;10261;49.010;12.034;2022-09-20T00:59:01;6.55;;;0.80;;
20203;SDS011;10261;49.010;12.034;2022-09-20T01:00:11;1.00;;;0.70;;
20203;SDS011;10261;49.010;12.034;2022-09-20T01:01:14;1.95;;;0.90;;
20203;SDS011;10261;49.010;12.034;2022-09-20T01:02:18;1.05;;;0.68;;
20203;SDS011;10261;49.010;12.034;2022-09-20T01:03:25;1.20;;;0.77;;
20203;SDS011;10261;49.010;12.034;2022-09-20T01:04:31;1.33;;;0.60;;
20203;SDS011;10261;49.010;12.034;2022-09-20T01:05:36;2.33;;;1.00;;
20203;SDS011;10261;49.010;12.034;2022-09-20T01:06:40;2.55;;;0.85;;
20203;SDS011;10261;49.010;12.034;2022-09-20T01:07:44;2.78;;;1.30;;
20203;SDS011;10261;49.010;12.034;2022-09-20T01:08:51;1.83;;;0.60;;
20203;SDS011;10261;49.010;12.034;2022-09-20T01:09:56;2.42;;;0.85;;
20203;SDS011;10261;49.010;12.034;2022-09-20T01:10:59;1.90;;;0.82;;
20203;SDS011;10261;49.010;12.034;2022-09-20T01:12:04;6.10;;;1.35;;
20203;SDS011;10261;49.010;12.034;2022-09-20T01:13:10;1.63;;;0.80;;
20203;SDS011;10261;49.010;12.034;2022-09-20T01:14:13;1.10;;;0.73;;
20203;SDS011;10261;49.010;12.034;2022-09-20T01:15:19;2.00;;;0.88;;
20203;SDS011;10261;49.010;12.034;2022-09-20T01:16:21;1.38;;;0.80;;
20203;SDS011;10261;49.010;12.034;2022-09-20T01:17:27;3.17;;;1.00;;
20203;SDS011;10261;49.010;12.034;2022-09-20T01:18:33;5.70;;;0.80;;
20203;SDS011;10261;49.010;12.034;2022-09-20T01:19:39;4.50;;;1.08;;
20203;SDS011;10261;49.010;12.034;2022-09-20T01:20:47;4.32;;;0.70;;
20203;SDS011;10261;49.010;12.034;2022-09-20T01:21:52;1.63;;;0.82;;
20203;SDS011;10261;49.010;12.034;2022-09-20T01:23:00;1.02;;;0.60;;
20203;SDS011;10261;49.010;12.034;2022-09-20T01:24:21;0.90;;;0.60;;
20203;SDS011;10261;49.010;12.034;2022-09-20T01:25:34;1.85;;;0.60;;
20203;SDS011;10261;49.010;12.034;2022-09-20T01:26:53;1.55;;;1.10;;
20203;SDS011;10261;49.010;12.034;2022-09-20T01:28:12;8.35;;;1.20;;
20203;SDS011;10261;49.010;12.034;2022-09-20T01:29:17;2.53;;;0.70;;
20203;SDS011;10261;49.010;12.034;2022-09-20T01:30:38;2.05;;;0.85;;
20203;SDS011;10261;49.010;12.034;2022-09-20T01:31:45;2.58;;;0.70;;
20203;SDS011;10261;49.010;12.034;2022-09-20T01:32:57;4.35;;;1.00;;
20203;SDS011;10261;49.010;12.034;2022-09-20T01:34:09;3.22;;;0.70;;
20203;SDS011;10261;49.010;12.034;2022-09-20T01:35:21;1.75;;;0.82;;
20203;SDS011;10261;49.010;12.034;2022-09-20T01:36:30;2.00;;;0.90;;
20203;SDS011;10261;49.010;12.034;2022-09-20T01:37:44;1.20;;;0.60;;
20203;SDS011;10261;49.010;12.034;2022-09-20T01:38:58;3.15;;;0.65;;
20203;SDS011;10261;49.010;12.034;2022-09-20T01:40:10;3.58;;;0.68;;
20203;SDS011;10261;49.010;12.034;2022-09-20T01:41:20;3.00;;;0.82;;
20203;SDS011;10261;49.010;12.034;2022-09-20T01:42:31;1.63;;;0.80;;
20203;SDS011;10261;49.010;12.034;2022-09-20T01:43:39;2.90;;;0.93;;
20203;SDS011;10261;49.010;12.034;2022-09-20T01:44:50;0.93;;;0.60;;
20203;SDS011;10261;49.010;12.034;2022-09-20T01:46:04;2.55;;;0.90;;
20203;SDS011;10261;49.010;12.034;2022-09-20T01:47:22;1.05;;;0.85;;
20203;SDS011;10261;49.010;12.034;2022-09-20T01:48:32;1.27;;;0.80;;
20203;SDS011;10261;49.010;12.034;2022-09-20T01:49:41;1.40;;;0.80;;
20203;SDS011;10261;49.010;12.034;2022-09-20T01:51:17;1.60;;;0.82;;
20203;SDS011;10261;49.010;12.034;2022-09-20T01:56:20;1.10;;;0.60;;
20203;SDS011;10261;49.010;12.034;2022-09-20T01:59:43;1.30;;;0.80;;
20203;SDS011;10261;49.010;12.034;2022-09-20T02:01:06;2.22;;;1.02;;
20203;SDS011;10261;49.010;12.034;2022-09-20T02:04:20;1.70;;;0.90;;
20203;SDS011;10261;49.010;12.034;2022-09-20T02:05:46;2.38;;;0.90;;
20203;SDS011;10261;49.010;12.034;2022-09-20T02:07:09;2.65;;;0.90;;
20203;SDS011;10261;49.010;12.034;2022-09-20T02:08:39;5.40;;;1.00;;
20203;SDS011;10261;49.010;12.034;2022-09-20T02:10:08;2.55;;;0.95;;
20203;SDS011;10261;49.010;12.034;2022-09-20T02:11:28;2.15;;;0.95;;
20203;SDS011;10261;49.010;12.034;2022-09-20T02:12:43;2.13;;;0.60;;
20203;SDS011;10261;49.010;12.034;2022-09-20T02:14:00;3.83;;;0.70;;
20203;SDS011;10261;49.010;12.034;2022-09-20T02:15:07;4.03;;;0.90;;
20203;SDS011;10261;49.010;12.034;2022-09-20T02:16:21;1.08;;;0.70;;
20203;SDS011;10261;49.010;12.034;2022-09-20T02:17:37;2.22;;;0.63;;
20203;SDS011;10261;49.010;12.034;2022-09-20T02:18:54;0.90;;;0.80;;
20203;SDS011;10261;49.010;12.034;2022-09-20T02:20:17;2.25;;;0.95;;
20203;SDS011;10261;49.010;12.034;2022-09-20T02:21:34;3.65;;;0.90;;
20203;SDS011;10261;49.010;12.034;2022-09-20T02:24:21;2.00;;;0.80;;
20203;SDS011;10261;49.010;12.034;2022-09-20T02:25:36;2.17;;;0.77;;
20203;SDS011;10261;49.010;12.034;2022-09-20T02:26:54;2.20;;;0.80;;
20203;SDS011;10261;49.010;12.034;2022-09-20T02:28:12;1.23;;;0.80;;
20203;SDS011;10261;49.010;12.034;2022-09-20T02:29:24;1.80;;;1.00;;
20203;SDS011;10261;49.010;12.034;2022-09-20T02:30:37;0.90;;;0.70;;
20203;SDS011;10261;49.010;12.034;2022-09-20T02:31:54;2.90;;;0.70;;
20203;SDS011;10261;49.010;12.034;2022-09-20T02:33:12;1.35;;;0.90;;
20203;SDS011;10261;49.010;12.034;2022-09-20T02:34:31;4.75;;;0.80;;
20203;SDS011;10261;49.010;12.034;2022-09-20T02:37:24;3.30;;;0.93;;
20203;SDS011;10261;49.010;12.034;2022-09-20T02:38:48;4.22;;;0.90;;
20203;SDS011;10261;49.010;12.034;2022-09-20T02:40:04;3.92;;;1.17;;
20203;SDS011;10261;49.010;12.034;2022-09-20T02:41:30;0.90;;;0.60;;
20203;SDS011;10261;49.010;12.034;2022-09-20T02:42:48;5.13;;;1.00;;
20203;SDS011;10261;49.010;12.034;2022-09-20T02:44:00;1.17;;;0.85;;
20203;SDS011;10261;49.010;12.034;2022-09-20T02:45:11;3.67;;;0.88;;
20203;SDS011;10261;49.010;12.034;2022-09-20T02:46:21;3.80;;;0.82;;
20203;SDS011;10261;49.010;12.034;2022-09-20T02:47:31;3.28;;;1.10;;
20203;SDS011;10261;49.010;12.034;2022-09-20T02:48:38;1.67;;;0.80;;
20203;SDS011;10261;49.010;12.034;2022-09-20T02:49:51;1.73;;;0.80;;
20203;SDS011;10261;49.010;12.034;2022-09-20T02:51:01;2.60;;;1.23;;
20203;SDS011;10261;49.010;12.034;2022-09-20T02:52:11;2.65;;;0.80;;
20203;SDS011;10261;49.010;12.034;2022-09-20T02:53:24;1.45;;;0.80;;
20203;SDS011;10261;49.010;12.034;2022-09-20T02:54:36;3.33;;;1.00;;
20203;SDS011;10261;49.010;12.034;2022-09-20T02:55:49;2.20;;;0.80;;
20203;SDS011;10261;49.010;12.034;2022-09-20T02:57:04;1.48;;;0.70;;
20203;SDS011;10261;49.010;12.034;2022-09-20T02:58:22;4.95;;;0.95;;
20203;SDS011;10261;49.010;12.034;2022-09-20T02:59:34;2.65;;;0.80;;
20203;SDS011;10261;49.010;12.034;2022-09-20T03:00:44;3.17;;;1.20;;
20203;SDS011;10261;49.010;12.034;2022-09-20T03:01:58;3.08;;;1.08;;
20203;SDS011;10261;49.010;12.034;2022-09-20T03:03:07;1.55;;;0.70;;
20203;SDS011;10261;49.010;12.034;2022-09-20T03:04:19;2.90;;;1.30;;
20203;SDS011;10261;49.010;12.034;2022-09-20T03:05:31;2.55;;;0.80;;
20203;SDS011;10261;49.010;12.034;2022-09-20T03:06:42;1.75;;;0.80;;
20203;SDS011;10261;49.010;12.034;2022-09-20T03:07:57;1.42;;;0.80;;
20203;SDS011;10261;49.010;12.034;2022-09-20T03:09:12;3.80;;;1.20;;
20203;SDS011;10261;49.010;12.034;2022-09-20T03:10:26;1.55;;;0.80;;
20203;SDS011;10261;49.010;12.034;2022-09-20T03:11:38;3.25;;;0.82;;
20203;SDS011;10261;49.010;12.034;2022-09-20T03:12:52;1.73;;;0.80;;
20203;SDS011;10261;49.010;12.034;2022-09-20T03:14:07;1.25;;;0.70;;
20203;SDS011;10261;49.010;12.034;2022-09-20T03:15:15;1.60;;;0.93;;
20203;SDS011;10261;49.010;12.034;2022-09-20T03:16:27;2.08;;;0.70;;
20203;SDS011;10261;49.010;12.034;2022-09-20T03:17:37;2.15;;;0.60;;
20203;SDS011;10261;49.010;12.034;2022-09-20T03:18:51;3.30;;;0.90;;
20203;SDS011;10261;49.010;12.034;2022-09-20T03:20:05;2.72;;;0.80;;
20203;SDS011;10261;49.010;12.034;2022-09-20T03:21:21;1.48;;;0.65;;
20203;SDS011;10261;49.010;12.034;2022-09-20T03:22:39;1.55;;;0.88;;
20203;SDS011;10261;49.010;12.034;2022-09-20T03:23:53;1.20;;;0.85;;
20203;SDS011;10261;49.010;12.034;2022-09-20T03:25:14;2.28;;;1.10;;
20203;SDS011;10261;49.010;12.034;2022-09-20T03:26:41;2.80;;;0.93;;
20203;SDS011;10261;49.010;12.034;2022-09-20T03:27:55;3.00;;;1.10;;
20203;SDS011;10261;49.010;12.034;2022-09-20T03:29:04;2.38;;;0.80;;
20203;SDS011;10261;49.010;12.034;2022-09-20T03:30:19;0.90;;;0.80;;
20203;SDS011;10261;49.010;12.034;2022-09-20T03:31:36;2.03;;;0.68;;
20203;SDS011;10261;49.010;12.034;2022-09-20T03:32:51;0.95;;;0.70;;
20203;SDS011;10261;49.010;12.034;2022-09-20T03:34:03;4.10;;;1.00;;
20203;SDS011;10261;49.010;12.034;2022-09-20T03:35:20;5.30;;;0.80;;
20203;SDS011;10261;49.010;12.034;2022-09-20T03:36:38;2.15;;;0.90;;
20203;SDS011;10261;49.010;12.034;2022-09-20T03:37:57;2.08;;;0.60;;
20203;SDS011;10261;49.010;12.034;2022-09-20T03:39:27;2.30;;;0.75;;
20203;SDS011;10261;49.010;12.034;2022-09-20T03:40:48;1.65;;;0.80;;
20203;SDS011;10261;49.010;12.034;2022-09-20T03:42:03;2.60;;;0.88;;
20203;SDS011;10261;49.010;12.034;2022-09-20T03:43:18;2.08;;;1.08;;
20203;SDS011;10261;49.010;12.034;2022-09-20T03:44:33;1.40;;;1.05;;
20203;SDS011;10261;49.010;12.034;2022-09-20T03:45:52;4.55;;;1.42;;
20203;SDS011;10261;49.010;12.034;2022-09-20T03:47:09;3.95;;;1.30;;
20203;SDS011;10261;49.010;12.034;2022-09-20T03:48:28;1.65;;;0.80;;
20203;SDS011;10261;49.010;12.034;2022-09-20T03:49:57;3.95;;;0.70;;
20203;SDS011;10261;49.010;12.034;2022-09-20T03:51:21;0.93;;;0.70;;
20203;SDS011;10261;49.010;12.034;2022-09-20T03:52:38;3.20;;;0.80;;
20203;SDS011;10261;49.010;12.034;2022-09-20T03:54:07;2.42;;;0.95;;
20203;SDS011;10261;49.010;12.034;2022-09-20T03:55:44;1.90;;;1.10;;
20203;SDS011;10261;49.010;12.034;2022-09-20T03:57:05;1.05;;;0.85;;
20203;SDS011;10261;49.010;12.034;2022-09-20T03:58:26;2.25;;;0.80;;
20203;SDS011;10261;49.010;12.034;2022-09-20T03:59:45;1.23;;;1.13;;
20203;SDS011;10261;49.010;12.034;2022-09-20T04:01:19;2.38;;;1.20;;
20203;SDS011;10261;49.010;12.034;2022-09-20T04:02:35;3.15;;;0.77;;
20203;SDS011;10261;49.010;12.034;2022-09-20T04:04:00;1.77;;;1.30;;
20203;SDS011;10261;49.010;12.034;2022-09-20T04:05:13;1.63;;;1.00;;
20203;SDS011;10261;49.010;12.034;2022-09-20T04:06:27;2.35;;;1.00;;
20203;SDS011;10261;49.010;12.034;2022-09-20T04:08:08;1.95;;;1.08;;
20203;SDS011;10261;49.010;12.034;2022-09-20T04:09:26;2.17;;;0.90;;
20203;SDS011;10261;49.010;12.034;2022-09-20T04:10:43;2.15;;;1.00;;
20203;SDS011;10261;49.010;12.034;2022-09-20T04:12:01;2.78;;;1.02;;
20203;SDS011;10261;49.010;12.034;2022-09-20T04:13:14;1.50;;;0.90;;
20203;SDS011;10261;49.010;12.034;2022-09-20T04:14:29;3.28;;;0.93;;
20203;SDS011;10261;49.010;12.034;2022-09-20T04:15:36;4.63;;;1.23;;
20203;SDS011;10261;49.010;12.034;2022-09-20T04:16:47;4.93;;;1.00;;
20203;SDS011;10261;49.010;12.034;2022-09-20T04:17:54;1.80;;;0.80;;
20203;SDS011;10261;49.010;12.034;2022-09-20T04:19:03;2.55;;;1.25;;
20203;SDS011;10261;49.010;12.034;2022-09-20T04:20:15;2.88;;;1.30;;
20203;SDS011;10261;49.010;12.034;2022-09-20T04:21:24;5.38;;;1.23;;
20203;SDS011;10261;49.010;12.034;2022-09-20T04:22:32;2.90;;;1.15;;
20203;SDS011;10261;49.010;12.034;2022-09-20T04:23:38;2.55;;;1.10;;
20203;SDS011;10261;49.010;12.034;2022-09-20T04:24:48;2.67;;;1.15;;
20203;SDS011;10261;49.010;12.034;2022-09-20T04:25:54;2.00;;;1.02;;
20203;SDS011;10261;49.010;12.034;2022-09-20T04:26:59;1.50;;;0.90;;
20203;SDS011;10261;49.010;12.034;2022-09-20T04:28:08;3.92;;;0.98;;
20203;SDS011;10261;49.010;12.034;2022-09-20T04:29:23;2.42;;;0.98;;
20203;SDS011;10261;49.010;12.034;2022-09-20T04:30:32;2.83;;;1.30;;
20203;SDS011;10261;49.010;12.034;2022-09-20T04:31:44;1.42;;;1.33;;
20203;SDS011;10261;49.010;12.034;2022-09-20T04:32:55;1.45;;;1.00;;
20203;SDS011;10261;49.010;12.034;2022-09-20T04:34:01;3.72;;;1.10;;
20203;SDS011;10261;49.010;12.034;2022-09-20T04:35:13;1.92;;;0.82;;
20203;SDS011;10261;49.010;12.034;2022-09-20T04:36:55;1.38;;;0.93;;
20203;SDS011;10261;49.010;12.034;2022-09-20T04:37:58;3.92;;;1.17;;
20203;SDS011;10261;49.010;12.034;2022-09-20T04:39:10;2.03;;;1.30;;
20203;SDS011;10261;49.010;12.034;2022-09-20T04:40:22;3.10;;;1.33;;
20203;SDS011;10261;49.010;12.034;2022-09-20T04:41:45;1.92;;;1.23;;
20203;SDS011;10261;49.010;12.034;2022-09-20T04:43:27;2.00;;;1.50;;
20203;SDS011;10261;49.010;12.034;2022-09-20T04:45:09;2.85;;;1.38;;
20203;SDS011;10261;49.010;12.034;2022-09-20T04:48:11;1.30;;;1.00;;
20203;SDS011;10261;49.010;12.034;2022-09-20T04:49:55;1.05;;;0.95;;
20203;SDS011;10261;49.010;12.034;2022-09-20T04:51:25;1.92;;;1.05;;
20203;SDS011;10261;49.010;12.034;2022-09-20T04:53:16;2.83;;;1.17;;
20203;SDS011;10261;49.010;12.034;2022-09-20T04:56:13;1.95;;;1.10;;
20203;SDS011;10261;49.010;12.034;2022-09-20T04:57:27;2.47;;;1.00;;
20203;SDS011;10261;49.010;12.034;2022-09-20T04:59:04;3.20;;;1.20;;
20203;SDS011;10261;49.010;12.034;2022-09-20T05:00:08;2.88;;;1.17;;
20203;SDS011;10261;49.010;12.034;2022-09-20T05:02:55;1.23;;;1.00;;
20203;SDS011;10261;49.010;12.034;2022-09-20T05:09:46;1.90;;;1.20;;
20203;SDS011;10261;49.010;12.034;2022-09-20T05:11:31;11.35;;;1.50;;
20203;SDS011;10261;49.010;12.034;2022-09-20T05:13:01;2.90;;;1.20;;
20203;SDS011;10261;49.010;12.034;2022-09-20T05:14:19;5.40;;;0.88;;
20203;SDS011;10261;49.010;12.034;2022-09-20T05:15:36;3.40;;;1.08;;
20203;SDS011;10261;49.010;12.034;2022-09-20T05:16:48;1.55;;;1.05;;
20203;SDS011;10261;49.010;12.034;2022-09-20T05:18:25;1.70;;;1.27;;
20203;SDS011;10261;49.010;12.034;2022-09-20T05:21:48;2.20;;;1.20;;
20203;SDS011;10261;49.010;12.034;2022-09-20T05:23:10;3.85;;;1.60;;
20203;SDS011;10261;49.010;12.034;2022-09-20T05:24:43;2.50;;;1.40;;
20203;SDS011;10261;49.010;12.034;2022-09-20T05:26:10;6.63;;;2.65;;
20203;SDS011;10261;49.010;12.034;2022-09-20T05:27:19;1.45;;;1.15;;
20203;SDS011;10261;49.010;12.034;2022-09-20T05:28:30;2.40;;;1.42;;
20203;SDS011;10261;49.010;12.034;2022-09-20T05:29:44;3.83;;;1.35;;
20203;SDS011;10261;49.010;12.034;2022-09-20T05:30:51;2.50;;;1.80;;
20203;SDS011;10261;49.010;12.034;2022-09-20T05:32:00;4.95;;;1.77;;
20203;SDS011;10261;49.010;12.034;2022-09-20T05:33:10;4.15;;;2.25;;
20203;SDS011;10261;49.010;12.034;2022-09-20T05:34:22;2.60;;;1.30;;
20203;SDS011;10261;49.010;12.034;2022-09-20T05:35:33;6.22;;;1.98;;
20203;SDS011;10261;49.010;12.034;2022-09-20T05:36:47;2.80;;;1.90;;
20203;SDS011;10261;49.010;12.034;2022-09-20T05:37:59;4.55;;;1.40;;
20203;SDS011;10261;49.010;12.034;2022-09-20T05:39:09;3.70;;;2.30;;
20203;SDS011;10261;49.010;12.034;2022-09-20T05:40:24;5.53;;;2.00;;
20203;SDS011;10261;49.010;12.034;2022-09-20T05:41:34;2.30;;;1.60;;
20203;SDS011;10261;49.010;12.034;2022-09-20T05:42:43;2.50;;;1.98;;
20203;SDS011;10261;49.010;12.034;2022-09-20T05:43:56;3.42;;;2.45;;
20203;SDS011;10261;49.010;12.034;2022-09-20T05:45:15;2.58;;;1.88;;
20203;SDS011;10261;49.010;12.034;2022-09-20T05:46:34;3.20;;;1.95;;
20203;SDS011;10261;49.010;12.034;2022-09-20T05:47:47;6.85;;;2.30;;
20203;SDS011;10261;49.010;12.034;2022-09-20T05:48:54;4.30;;;2.45;;
20203;SDS011;10261;49.010;12.034;2022-09-20T05:50:10;3.53;;;2.30;;
20203;SDS011;10261;49.010;12.034;2022-09-20T05:51:33;4.75;;;2.10;;
20203;SDS011;10261;49.010;12.034;2022-09-20T05:52:48;4.63;;;2.20;;
20203;SDS011;10261;49.010;12.034;2022-09-20T05:54:06;2.30;;;1.50;;
20203;SDS011;10261;49.010;12.034;2022-09-20T05:56:59;3.47;;;2.50;;
20203;SDS011;10261;49.010;12.034;2022-09-20T05:58:21;5.75;;;1.70;;
20203;SDS011;10261;49.010;12.034;2022-09-20T05:59:42;2.97;;;1.70;;
20203;SDS011;10261;49.010;12.034;2022-09-20T06:00:57;2.25;;;1.95;;
20203;SDS011;10261;49.010;12.034;2022-09-20T06:02:10;4.80;;;1.80;;
20203;SDS011;10261;49.010;12.034;2022-09-20T06:03:24;13.02;;;2.53;;
20203;SDS011;10261;49.010;12.034;2022-09-20T06:04:37;3.40;;;1.70;;
20203;SDS011;10261;49.010;12.034;2022-09-20T06:05:48;2.70;;;1.77;;
20203;SDS011;10261;49.010;12.034;2022-09-20T06:06:57;5.00;;;1.65;;
20203;SDS011;10261;49.010;12.034;2022-09-20T06:08:19;4.32;;;2.35;;
20203;SDS011;10261;49.010;12.034;2022-09-20T06:09:45;3.70;;;1.55;;
20203;SDS011;10261;49.010;12.034;2022-09-20T06:11:12;1.98;;;1.63;;
20203;SDS011;10261;49.010;12.034;2022-09-20T06:12:28;3.13;;;1.90;;
20203;SDS011;10261;49.010;12.034;2022-09-20T06:13:44;1.50;;;1.40;;
20203;SDS011;10261;49.010;12.034;2022-09-20T06:15:02;3.45;;;1.98;;
20203;SDS011;10261;49.010;12.034;2022-09-20T06:16:24;3.00;;;1.52;;
20203;SDS011;10261;49.010;12.034;2022-09-20T06:17:33;3.08;;;1.70;;
20203;SDS011;10261;49.010;12.034;2022-09-20T06:18:42;5.85;;;1.60;;
20203;SDS011;10261;49.010;12.034;2022-09-20T06:19:55;2.95;;;2.00;;
20203;SDS011;10261;49.010;12.034;2022-09-20T06:21:09;1.98;;;1.75;;
20203;SDS011;10261;49.010;12.034;2022-09-20T06:22:21;3.25;;;1.65;;
20203;SDS011;10261;49.010;12.034;2022-09-20T06:23:29;3.42;;;1.48;;
20203;SDS011;10261;49.010;12.034;2022-09-20T06:24:34;3.08;;;1.63;;
20203;SDS011;10261;49.010;12.034;2022-09-20T06:25:40;4.63;;;1.70;;
20203;SDS011;10261;49.010;12.034;2022-09-20T06:26:47;3.65;;;2.60;;
20203;SDS011;10261;49.010;12.034;2022-09-20T06:27:54;3.42;;;2.13;;
20203;SDS011;10261;49.010;12.034;2022-09-20T06:29:02;4.18;;;1.77;;
20203;SDS011;10261;49.010;12.034;2022-09-20T06:30:07;3.50;;;1.92;;
20203;SDS011;10261;49.010;12.034;2022-09-20T06:31:16;2.50;;;1.60;;
20203;SDS011;10261;49.010;12.034;2022-09-20T06:32:20;3.55;;;1.67;;
20203;SDS011;10261;49.010;12.034;2022-09-20T06:33:23;3.28;;;1.80;;
20203;SDS011;10261;49.010;12.034;2022-09-20T06:34:26;4.18;;;1.90;;
20203;SDS011;10261;49.010;12.034;2022-09-20T06:35:32;4.22;;;1.70;;
20203;SDS011;10261;49.010;12.034;2022-09-20T06:36:38;5.28;;;1.90;;
20203;SDS011;10261;49.010;12.034;2022-09-20T06:38:10;2.80;;;1.65;;
20203;SDS011;10261;49.010;12.034;2022-09-20T06:39:46;1.70;;;1.35;;
20203;SDS011;10261;49.010;12.034;2022-09-20T06:41:13;2.65;;;1.52;;
20203;SDS011;10261;49.010;12.034;2022-09-20T06:42:28;2.17;;;1.90;;
20203;SDS011;10261;49.010;12.034;2022-09-20T06:43:31;5.05;;;2.00;;
20203;SDS011;10261;49.010;12.034;2022-09-20T06:44:34;1.48;;;1.35;;
20203;SDS011;10261;49.010;12.034;2022-09-20T06:45:38;5.97;;;1.98;;
20203;SDS011;10261;49.010;12.034;2022-09-20T06:46:40;5.38;;;2.20;;
20203;SDS011;10261;49.010;12.034;2022-09-20T06:47:45;1.98;;;1.45;;
20203;SDS011;10261;49.010;12.034;2022-09-20T06:48:48;2.47;;;2.28;;
20203;SDS011;10261;49.010;12.034;2022-09-20T06:49:50;7.45;;;2.38;;
20203;SDS011;10261;49.010;12.034;2022-09-20T06:50:53;3.88;;;1.65;;
20203;SDS011;10261;49.010;12.034;2022-09-20T06:51:56;3.30;;;1.75;;
20203;SDS011;10261;49.010;12.034;2022-09-20T06:52:59;5.10;;;2.22;;
20203;SDS011;10261;49.010;12.034;2022-09-20T06:54:01;2.72;;;1.83;;
20203;SDS011;10261;49.010;12.034;2022-09-20T06:55:05;3.58;;;1.50;;
20203;SDS011;10261;49.010;12.034;2022-09-20T06:56:14;5.50;;;2.00;;
20203;SDS011;10261;49.010;12.034;2022-09-20T06:57:21;6.30;;;1.80;;
20203;SDS011;10261;49.010;12.034;2022-09-20T06:58:24;4.75;;;2.17;;
20203;SDS011;10261;49.010;12.034;2022-09-20T06:59:28;6.57;;;4.40;;
20203;SDS011;10261;49.010;12.034;2022-09-20T07:00:32;4.05;;;1.80;;
20203;SDS011;10261;49.010;12.034;2022-09-20T07:01:34;5.43;;;1.98;;
20203;SDS011;10261;49.010;12.034;2022-09-20T07:02:37;4.45;;;1.55;;
20203;SDS011;10261;49.010;12.034;2022-09-20T07:03:40;2.67;;;1.70;;
20203;SDS011;10261;49.010;12.034;2022-09-20T07:04:44;2.95;;;1.70;;
20203;SDS011;10261;49.010;12.034;2022-09-20T07:05:46;4.38;;;1.88;;
20203;SDS011;10261;49.010;12.034;2022-09-20T07:06:49;3.25;;;1.52;;
20203;SDS011;10261;49.010;12.034;2022-09-20T07:07:54;3.00;;;1.63;;
20203;SDS011;10261;49.010;12.034;2022-09-20T07:08:58;3.67;;;1.90;;
20203;SDS011;10261;49.010;12.034;2022-09-20T07:10:01;9.15;;;2.00;;
20203;SDS011;10261;49.010;12.034;2022-09-20T07:11:04;2.60;;;1.80;;
20203;SDS011;10261;49.010;12.034;2022-09-20T07:12:09;6.07;;;2.03;;
20203;SDS011;10261;49.010;12.034;2022-09-20T07:13:12;2.75;;;1.80;;
20203;SDS011;10261;49.010;12.034;2022-09-20T07:14:14;2.45;;;1.40;;
20203;SDS011;10261;49.010;12.034;2022-09-20T07:15:19;6.88;;;1.60;;
20203;SDS011;10261;49.010;12.034;2022-09-20T07:16:23;2.40;;;1.80;;
20203;SDS011;10261;49.010;12.034;2022-09-20T07:17:26;3.17;;;1.75;;
20203;SDS011;10261;49.010;12.034;2022-09-20T07:18:28;6.28;;;1.55;;
20203;SDS011;10261;49.010;12.034;2022-09-20T07:19:33;4.72;;;1.77;;
20203;SDS011;10261;49.010;12.034;2022-09-20T07:20:36;4.95;;;1.27;;
20203;SDS011;10261;49.010;12.034;2022-09-20T07:21:41;6.05;;;1.67;;
20203;SDS011;10261;49.010;12.034;2022-09-20T07:22:43;2.40;;;1.50;;
20203;SDS011;10261;49.010;12.034;2022-09-20T07:23:47;2.25;;;1.50;;
20203;SDS011;10261;49.010;12.034;2022-09-20T07:24:51;2.88;;;1.30;;
20203;SDS011;10261;49.010;12.034;2022-09-20T07:25:54;3.38;;;1.58;;
20203;SDS011;10261;49.010;12.034;2022-09-20T07:26:58;6.88;;;1.52;;
20203;SDS011;10261;49.010;12.034;2022-09-20T07:28:01;3.47;;;1.77;;
20203;SDS011;10261;49.010;12.034;2022-09-20T07:29:04;3.30;;;1.38;;
20203;SDS011;10261;49.010;12.034;2022-09-20T07:30:09;2.67;;;1.30;;
20203;SDS011;10261;49.010;12.034;2022-09-20T07:31:12;4.20;;;1.48;;
20203;SDS011;10261;49.010;12.034;2022-09-20T07:32:14;8.80;;;1.95;;
20203;SDS011;10261;49.010;12.034;2022-09-20T07:33:18;5.10;;;1.65;;